createdAt,value
2023-01-10T00:00:52.845Z,6.30
2023-01-10T00:01:52.804Z,6.50
2023-01-10T00:02:52.796Z,6.30
2023-01-10T00:03:52.716Z,6.20
2023-01-10T00:04:52.688Z,6.50
2023-01-10T00:05:52.620Z,6.10
2023-01-10T00:06:52.566Z,6.70
2023-01-10T00:07:52.518Z,6.10
2023-01-10T00:08:52.467Z,6.30
2023-01-10T00:09:52.428Z,6.20
2023-01-10T00:10:52.372Z,5.90
2023-01-10T00:11:52.351Z,6.60
2023-01-10T00:12:52.284Z,5.80
2023-01-10T00:13:52.232Z,6.50
2023-01-10T00:14:52.187Z,6.20
2023-01-10T00:15:52.243Z,6.40
2023-01-10T00:16:52.105Z,5.90
2023-01-10T00:17:52.067Z,6.70
2023-01-10T00:18:52.007Z,6.20
2023-01-10T00:19:51.957Z,6.10
2023-01-10T00:20:51.903Z,6.00
2023-01-10T00:21:51.859Z,6.00
2023-01-10T00:22:51.826Z,6.00
2023-01-10T00:23:51.770Z,5.40
2023-01-10T00:24:51.715Z,6.00
2023-01-10T00:25:51.673Z,6.10
2023-01-10T00:26:51.698Z,5.90
2023-01-10T00:27:51.607Z,5.80
2023-01-10T00:28:51.536Z,6.10
2023-01-10T00:29:51.482Z,5.60
2023-01-10T00:30:51.541Z,5.70
2023-01-10T00:31:51.385Z,6.30
2023-01-10T00:32:51.342Z,5.90
2023-01-10T00:33:51.304Z,6.00
2023-01-10T00:34:51.248Z,6.30
2023-01-10T00:35:51.203Z,5.60
2023-01-10T00:36:51.151Z,5.80
2023-01-10T00:37:51.109Z,5.50
2023-01-10T00:38:51.067Z,5.50
2023-01-10T00:39:51.017Z,5.40
2023-01-10T00:40:50.969Z,5.30
2023-01-10T00:41:50.922Z,5.70
2023-01-10T00:42:50.875Z,5.80
2023-01-10T00:43:50.844Z,5.50
2023-01-10T00:44:50.777Z,5.50
2023-01-10T00:45:50.786Z,4.90
2023-01-10T00:46:50.682Z,5.60
2023-01-10T00:47:50.637Z,5.70
2023-01-10T00:48:50.595Z,5.20
2023-01-10T00:49:50.534Z,5.60
2023-01-10T00:50:50.505Z,5.40
2023-01-10T00:51:50.443Z,5.30
2023-01-10T00:52:50.395Z,5.40
2023-01-10T00:53:50.355Z,5.30
2023-01-10T00:54:50.327Z,5.00
2023-01-10T00:55:50.278Z,4.80
2023-01-10T00:56:50.217Z,5.20
2023-01-10T00:57:50.176Z,4.70
2023-01-10T00:58:50.130Z,4.80
2023-01-10T00:59:50.105Z,5.10
2023-01-10T01:00:50.317Z,4.70
2023-01-10T01:01:50.102Z,4.80
2023-01-10T01:02:49.989Z,4.40
2023-01-10T01:03:49.877Z,5.10
2023-01-10T01:04:49.844Z,4.90
2023-01-10T01:05:49.797Z,4.20
2023-01-10T01:06:49.743Z,4.60
2023-01-10T01:07:49.697Z,4.60
2023-01-10T01:08:49.641Z,4.40
2023-01-10T01:09:49.604Z,4.30
2023-01-10T01:10:49.560Z,4.50
2023-01-10T01:11:49.536Z,4.10
2023-01-10T01:12:49.459Z,4.60
2023-01-10T01:13:49.414Z,5.00
2023-01-10T01:14:49.378Z,5.50
2023-01-10T01:15:49.434Z,4.60
2023-01-10T01:16:49.265Z,5.00
2023-01-10T01:17:49.226Z,5.40
2023-01-10T01:18:49.175Z,5.80
2023-01-10T01:19:49.135Z,5.50
2023-01-10T01:20:49.077Z,5.70
2023-01-10T01:21:49.033Z,5.60
2023-01-10T01:22:48.988Z,5.10
2023-01-10T01:23:48.938Z,5.70
2023-01-10T01:24:48.889Z,4.90
2023-01-10T01:25:48.837Z,4.80
2023-01-10T01:26:48.796Z,4.60
2023-01-10T01:27:48.745Z,4.70
2023-01-10T01:28:48.703Z,5.00
2023-01-10T01:29:48.648Z,4.90
2023-01-10T01:30:48.644Z,5.20
2023-01-10T01:31:48.579Z,5.00
2023-01-10T01:32:48.511Z,4.70
2023-01-10T01:33:48.506Z,4.80
2023-01-10T01:34:48.417Z,4.50
2023-01-10T01:35:48.393Z,4.50
2023-01-10T01:36:48.327Z,4.70
2023-01-10T01:37:48.272Z,4.50
2023-01-10T01:38:48.229Z,4.30
2023-01-10T01:39:48.181Z,4.90
2023-01-10T01:40:48.138Z,4.60
2023-01-10T01:41:48.092Z,4.20
2023-01-10T01:42:48.043Z,4.50
2023-01-10T01:43:48.003Z,4.40
2023-01-10T01:44:47.947Z,4.90
2023-01-10T01:45:47.897Z,4.50
2023-01-10T01:46:47.890Z,4.00
2023-01-10T01:47:47.835Z,4.60
2023-01-10T01:48:47.819Z,4.00
2023-01-10T01:49:47.765Z,4.30
2023-01-10T01:50:47.724Z,4.20
2023-01-10T01:51:47.617Z,4.10
2023-01-10T01:52:47.569Z,4.20
2023-01-10T01:53:47.532Z,3.90
2023-01-10T01:54:47.480Z,3.60
2023-01-10T01:55:47.439Z,3.80
2023-01-10T01:56:47.395Z,3.50
2023-01-10T01:57:47.335Z,3.90
2023-01-10T01:58:47.296Z,3.70
2023-01-10T01:59:47.242Z,3.60
2023-01-10T02:00:47.196Z,3.90
2023-01-10T02:01:47.221Z,3.50
2023-01-10T02:03:01.178Z,3.70
2023-01-10T02:04:47.032Z,3.40
2023-01-10T02:05:46.972Z,4.00
2023-01-10T02:06:46.922Z,4.00
2023-01-10T02:07:46.867Z,3.60
2023-01-10T02:08:46.824Z,3.60
2023-01-10T02:09:46.777Z,3.30
2023-01-10T02:10:46.727Z,3.30
2023-01-10T02:11:46.682Z,3.80
2023-01-10T02:12:46.635Z,3.30
2023-01-10T02:13:46.586Z,3.20
2023-01-10T02:14:46.536Z,3.50
2023-01-10T02:15:46.961Z,3.20
2023-01-10T02:16:46.445Z,3.20
2023-01-10T02:17:46.398Z,3.30
2023-01-10T02:18:46.351Z,3.60
2023-01-10T02:19:46.311Z,3.50
2023-01-10T02:20:46.281Z,3.30
2023-01-10T02:21:46.211Z,3.50
2023-01-10T02:22:46.175Z,2.80
2023-01-10T02:23:46.114Z,3.20
2023-01-10T02:24:46.068Z,3.10
2023-01-10T02:25:46.024Z,3.20
2023-01-10T02:26:45.980Z,3.10
2023-01-10T02:27:45.931Z,3.70
2023-01-10T02:28:45.896Z,3.50
2023-01-10T02:29:45.834Z,3.60
2023-01-10T02:30:45.790Z,3.30
2023-01-10T02:31:45.741Z,3.50
2023-01-10T02:32:53.648Z,3.60
2023-01-10T02:33:45.650Z,3.20
2023-01-10T02:34:45.632Z,4.50
2023-01-10T02:35:45.562Z,3.90
2023-01-10T02:36:45.542Z,3.80
2023-01-10T02:37:45.459Z,4.10
2023-01-10T02:38:45.413Z,3.80
2023-01-10T02:39:45.363Z,3.80
2023-01-10T02:40:45.322Z,3.60
2023-01-10T02:43:13.030Z,3.60
2023-01-10T02:44:12.988Z,2.90
2023-01-10T02:45:12.940Z,3.80
2023-01-10T02:46:12.906Z,3.60
2023-01-10T02:47:12.848Z,3.30
2023-01-10T02:48:12.798Z,3.50
2023-01-10T02:49:12.753Z,3.20
2023-01-10T02:50:12.708Z,3.30
2023-01-10T02:51:12.667Z,3.60
2023-01-10T02:52:12.635Z,3.00
2023-01-10T02:53:12.565Z,3.20
2023-01-10T02:54:12.516Z,3.10
2023-01-10T02:55:12.472Z,3.00
2023-01-10T02:56:12.458Z,3.30
2023-01-10T02:57:12.380Z,3.10
2023-01-10T02:58:12.335Z,3.40
2023-01-10T02:59:12.289Z,3.40
2023-01-10T03:00:12.237Z,3.10
2023-01-10T03:01:12.250Z,3.30
2023-01-10T03:02:12.206Z,3.20
2023-01-10T03:03:12.104Z,3.70
2023-01-10T03:04:12.053Z,3.70
2023-01-10T03:05:12.182Z,3.30
2023-01-10T03:06:11.955Z,3.50
2023-01-10T03:07:11.905Z,3.40
2023-01-10T03:08:11.894Z,3.20
2023-01-10T03:09:11.814Z,3.70
2023-01-10T03:10:11.764Z,3.70
2023-01-10T03:11:11.716Z,3.50
2023-01-10T03:12:11.673Z,3.40
2023-01-10T03:13:11.623Z,3.40
2023-01-10T03:14:11.581Z,3.50
2023-01-10T03:15:11.532Z,3.90
2023-01-10T03:16:11.561Z,3.60
2023-01-10T03:17:11.434Z,3.30
2023-01-10T03:18:11.390Z,3.70
2023-01-10T03:19:11.344Z,3.60
2023-01-10T03:20:11.303Z,4.20
2023-01-10T03:21:11.251Z,4.40
2023-01-10T03:22:11.229Z,3.80
2023-01-10T03:23:11.160Z,3.80
2023-01-10T03:24:11.127Z,3.90
2023-01-10T03:25:11.056Z,3.10
2023-01-10T03:26:11.015Z,3.40
2023-01-10T03:27:14.211Z,4.00
2023-01-10T03:28:10.920Z,3.80
2023-01-10T03:29:10.868Z,3.60
2023-01-10T03:30:10.832Z,3.80
2023-01-10T03:31:10.823Z,4.30
2023-01-10T03:32:10.727Z,4.20
2023-01-10T03:33:10.683Z,3.60
2023-01-10T03:34:10.635Z,4.00
2023-01-10T03:35:10.582Z,3.70
2023-01-10T03:36:10.551Z,3.60
2023-01-10T03:37:10.494Z,3.90
2023-01-10T03:38:10.447Z,4.00
2023-01-10T03:39:10.398Z,3.90
2023-01-10T03:40:10.376Z,4.20
2023-01-10T03:42:10.254Z,3.20
2023-01-10T03:43:10.210Z,3.50
2023-01-10T03:44:10.160Z,3.70
2023-01-10T03:45:10.127Z,3.50
2023-01-10T03:46:10.117Z,3.60
2023-01-10T03:47:10.032Z,4.10
2023-01-10T03:48:09.988Z,3.80
2023-01-10T03:49:09.937Z,3.50
2023-01-10T03:50:09.879Z,3.70
2023-01-10T03:51:09.832Z,3.50
2023-01-10T03:52:09.779Z,3.30
2023-01-10T03:53:09.755Z,3.40
2023-01-10T03:55:36.476Z,3.40
2023-01-10T03:56:36.401Z,3.50
2023-01-10T03:57:36.369Z,3.50
2023-01-10T03:58:36.311Z,3.20
2023-01-10T03:59:36.271Z,3.10
2023-01-10T04:00:36.212Z,3.60
2023-01-10T04:01:36.278Z,3.40
2023-01-10T04:02:36.119Z,3.60
2023-01-10T04:03:36.075Z,3.60
2023-01-10T04:04:36.026Z,3.50
2023-01-10T04:05:35.979Z,3.10
2023-01-10T04:06:35.932Z,3.30
2023-01-10T04:07:35.886Z,3.40
2023-01-10T04:08:35.833Z,3.40
2023-01-10T04:09:35.788Z,3.80
2023-01-10T04:10:35.757Z,3.30
2023-01-10T04:11:35.714Z,4.00
2023-01-10T04:12:35.647Z,3.50
2023-01-10T04:13:35.592Z,3.30
2023-01-10T04:14:35.549Z,3.80
2023-01-10T04:15:35.546Z,3.30
2023-01-10T04:16:35.507Z,3.40
2023-01-10T04:17:35.405Z,3.50
2023-01-10T04:18:35.370Z,3.50
2023-01-10T04:19:35.312Z,3.40
2023-01-10T04:20:35.263Z,3.30
2023-01-10T04:21:35.216Z,4.60
2023-01-10T04:22:35.168Z,3.60
2023-01-10T04:23:35.126Z,3.40
2023-01-10T04:24:35.083Z,3.40
2023-01-10T04:25:35.036Z,2.90
2023-01-10T04:26:34.996Z,3.50
2023-01-10T04:27:34.955Z,3.40
2023-01-10T04:28:34.885Z,3.30
2023-01-10T04:29:34.850Z,2.70
2023-01-10T04:30:34.795Z,2.90
2023-01-10T04:31:34.876Z,3.40
2023-01-10T04:32:34.697Z,3.40
2023-01-10T04:33:34.649Z,3.40
2023-01-10T04:34:34.604Z,3.70
2023-01-10T04:35:34.555Z,3.10
2023-01-10T04:36:34.514Z,3.10
2023-01-10T04:37:34.459Z,3.40
2023-01-10T04:38:34.429Z,3.40
2023-01-10T04:39:34.364Z,4.00
2023-01-10T04:40:34.337Z,3.00
2023-01-10T04:45:44.158Z,3.60
2023-01-10T04:46:44.028Z,2.70
2023-01-10T04:47:43.968Z,3.40
2023-01-10T04:48:43.923Z,3.60
2023-01-10T04:49:43.879Z,3.40
2023-01-10T04:50:43.833Z,3.10
2023-01-10T04:51:43.784Z,3.40
2023-01-10T04:52:43.751Z,3.10
2023-01-10T04:53:43.689Z,3.40
2023-01-10T04:54:43.641Z,3.40
2023-01-10T04:55:43.592Z,3.60
2023-01-10T04:56:43.548Z,3.40
2023-01-10T04:57:43.502Z,3.40
2023-01-10T04:58:43.451Z,2.80
2023-01-10T04:59:43.409Z,3.40
2023-01-10T05:00:43.355Z,3.10
2023-01-10T05:01:43.406Z,3.80
2023-01-10T05:02:43.402Z,3.30
2023-01-10T05:03:43.232Z,3.50
2023-01-10T05:04:43.165Z,3.20
2023-01-10T05:05:43.119Z,3.00
2023-01-10T05:06:43.081Z,3.40
2023-01-10T05:07:43.028Z,3.30
2023-01-10T05:08:42.974Z,3.60
2023-01-10T05:09:42.931Z,3.20
2023-01-10T05:10:42.884Z,3.40
2023-01-10T05:11:42.841Z,3.20
2023-01-10T05:12:42.786Z,3.00
2023-01-10T05:13:42.736Z,3.30
2023-01-10T05:14:42.691Z,3.30
2023-01-10T05:15:42.658Z,3.80
2023-01-10T05:16:42.612Z,3.60
2023-01-10T05:17:42.569Z,3.60
2023-01-10T05:18:42.505Z,3.30
2023-01-10T05:19:42.451Z,4.10
2023-01-10T05:20:42.405Z,3.80
2023-01-10T05:21:42.367Z,3.90
2023-01-10T05:22:42.330Z,3.90
2023-01-10T05:23:42.269Z,3.90
2023-01-10T05:24:42.217Z,4.20
2023-01-10T05:25:42.170Z,4.20
2023-01-10T05:26:42.132Z,3.70
2023-01-10T05:27:42.076Z,3.90
2023-01-10T05:28:42.035Z,4.20
2023-01-10T05:29:41.984Z,4.20
2023-01-10T05:30:41.932Z,3.60
2023-01-10T05:31:41.931Z,5.00
2023-01-10T05:32:41.839Z,4.30
2023-01-10T05:33:41.813Z,4.40
2023-01-10T05:35:41.692Z,4.00
2023-01-10T05:36:41.643Z,4.00
2023-01-10T05:37:41.603Z,3.90
2023-01-10T05:38:41.552Z,3.80
2023-01-10T05:39:41.500Z,4.40
2023-01-10T05:40:41.464Z,3.60
2023-01-10T05:41:41.409Z,4.30
2023-01-10T05:42:41.376Z,4.10
2023-01-10T05:43:41.338Z,3.50
2023-01-10T05:44:41.271Z,3.80
2023-01-10T05:45:41.319Z,4.10
2023-01-10T05:46:41.175Z,3.70
2023-01-10T05:47:41.127Z,3.40
2023-01-10T05:48:41.076Z,3.50
2023-01-10T05:49:41.047Z,3.70
2023-01-10T05:50:40.981Z,3.50
2023-01-10T05:51:40.932Z,3.80
2023-01-10T05:52:40.885Z,3.60
2023-01-10T05:53:40.838Z,3.30
2023-01-10T05:54:40.795Z,4.20
2023-01-10T05:55:40.748Z,3.90
2023-01-10T05:56:40.711Z,4.10
2023-01-10T05:57:40.661Z,3.70
2023-01-10T05:58:40.607Z,3.30
2023-01-10T05:59:40.554Z,3.50
2023-01-10T06:00:40.503Z,4.00
2023-01-10T06:01:40.459Z,3.70
2023-01-10T06:02:40.533Z,3.60
2023-01-10T06:03:40.363Z,3.50
2023-01-10T06:04:40.314Z,4.20
2023-01-10T06:05:40.287Z,3.30
2023-01-10T06:06:40.222Z,3.70
2023-01-10T06:07:40.170Z,3.70
2023-01-10T06:08:40.121Z,3.20
2023-01-10T06:09:40.081Z,3.50
2023-01-10T06:10:42.094Z,3.90
2023-01-10T06:11:39.987Z,3.60
2023-01-10T06:12:39.931Z,3.70
2023-01-10T06:13:39.885Z,3.70
2023-01-10T06:14:39.840Z,3.50
2023-01-10T06:15:39.848Z,4.20
2023-01-10T06:16:39.745Z,3.70
2023-01-10T06:17:39.695Z,3.90
2023-01-10T06:18:39.643Z,3.90
2023-01-10T06:19:39.606Z,3.70
2023-01-10T06:20:39.562Z,3.90
2023-01-10T06:21:39.526Z,3.40
2023-01-10T06:22:39.452Z,4.00
2023-01-10T06:23:39.410Z,3.90
2023-01-10T06:24:39.359Z,4.30
2023-01-10T06:25:39.323Z,3.90
2023-01-10T06:26:39.271Z,3.20
2023-01-10T06:27:39.217Z,3.50
2023-01-10T06:28:39.169Z,3.40
2023-01-10T06:29:39.123Z,3.70
2023-01-10T06:30:39.100Z,3.40
2023-01-10T06:31:39.052Z,3.40
2023-01-10T06:32:38.991Z,3.20
2023-01-10T06:33:38.939Z,3.70
2023-01-10T06:34:38.888Z,3.50
2023-01-10T06:35:38.859Z,3.40
2023-01-10T06:36:38.788Z,3.50
2023-01-10T06:37:38.776Z,3.80
2023-01-10T06:38:38.697Z,3.30
2023-01-10T06:39:38.646Z,3.70
2023-01-10T06:40:38.607Z,3.10
2023-01-10T06:41:38.548Z,3.80
2023-01-10T06:42:38.498Z,4.00
2023-01-10T06:43:38.455Z,3.90
2023-01-10T06:44:38.410Z,3.80
2023-01-10T06:45:38.421Z,4.00
2023-01-10T06:46:38.310Z,3.70
2023-01-10T06:47:38.264Z,4.10
2023-01-10T06:48:38.218Z,3.60
2023-01-10T06:49:38.175Z,3.50
2023-01-10T06:50:38.126Z,3.70
2023-01-10T06:51:38.078Z,4.00
2023-01-10T06:52:38.024Z,3.90
2023-01-10T06:53:37.997Z,4.10
2023-01-10T06:54:37.936Z,4.20
2023-01-10T06:55:37.890Z,3.70
2023-01-10T06:56:37.836Z,4.10
2023-01-10T06:57:37.788Z,3.80
2023-01-10T06:58:37.739Z,4.10
2023-01-10T06:59:37.692Z,3.90
2023-01-10T07:00:37.673Z,4.00
2023-01-10T07:01:37.763Z,3.90
2023-01-10T07:02:37.561Z,4.10
2023-01-10T07:03:37.561Z,3.50
2023-01-10T07:04:37.458Z,3.50
2023-01-10T07:05:37.408Z,3.60
2023-01-10T07:06:37.356Z,3.80
2023-01-10T07:07:37.307Z,3.80
2023-01-10T07:08:37.260Z,4.80
2023-01-10T07:09:37.234Z,3.70
2023-01-10T07:10:37.173Z,3.90
2023-01-10T07:11:37.122Z,3.80
2023-01-10T07:12:37.071Z,3.70
2023-01-10T07:13:37.052Z,4.20
2023-01-10T07:14:36.976Z,3.60
2023-01-10T07:15:36.930Z,3.90
2023-01-10T07:16:36.884Z,4.70
2023-01-10T07:17:36.844Z,4.30
2023-01-10T07:18:36.787Z,3.70
2023-01-10T07:19:39.361Z,4.60
2023-01-10T07:20:36.689Z,4.30
2023-01-10T07:21:36.648Z,4.30
2023-01-10T07:22:36.595Z,3.80
2023-01-10T07:23:36.588Z,4.90
2023-01-10T07:24:36.501Z,3.90
2023-01-10T07:25:36.472Z,3.80
2023-01-10T07:26:36.405Z,3.80
2023-01-10T07:27:36.366Z,4.90
2023-01-10T07:28:36.312Z,3.60
2023-01-10T07:29:36.276Z,4.30
2023-01-10T07:30:36.221Z,4.30
2023-01-10T07:31:36.248Z,4.50
2023-01-10T07:32:36.120Z,3.90
2023-01-10T07:33:36.086Z,4.20
2023-01-10T07:34:36.032Z,4.10
2023-01-10T07:35:35.981Z,4.20
2023-01-10T07:36:37.928Z,4.00
2023-01-10T07:37:35.883Z,4.20
2023-01-10T07:38:35.839Z,4.00
2023-01-10T07:39:35.787Z,4.60
2023-01-10T07:40:35.773Z,4.00
2023-01-10T07:41:35.740Z,4.30
2023-01-10T07:42:35.659Z,4.50
2023-01-10T07:43:35.605Z,3.80
2023-01-10T07:44:35.557Z,4.40
2023-01-10T07:45:35.507Z,3.90
2023-01-10T07:46:35.588Z,4.10
2023-01-10T07:47:35.512Z,4.20
2023-01-10T07:48:35.458Z,3.90
2023-01-10T07:49:35.332Z,4.10
2023-01-10T07:50:35.267Z,4.10
2023-01-10T07:51:35.219Z,3.90
2023-01-10T07:52:35.168Z,4.00
2023-01-10T07:53:35.123Z,4.10
2023-01-10T07:54:35.078Z,4.60
2023-01-10T07:55:35.033Z,4.00
2023-01-10T07:56:34.980Z,4.30
2023-01-10T07:57:34.953Z,4.10
2023-01-10T07:58:34.892Z,4.60
2023-01-10T07:59:34.838Z,4.30
2023-01-10T08:00:34.790Z,4.40
2023-01-10T08:01:34.816Z,4.70
2023-01-10T08:02:34.781Z,4.50
2023-01-10T08:03:34.814Z,3.70
2023-01-10T08:04:34.603Z,4.30
2023-01-10T08:05:34.567Z,4.40
2023-01-10T08:06:34.529Z,4.30
2023-01-10T08:07:34.471Z,4.00
2023-01-10T08:08:34.426Z,4.40
2023-01-10T08:09:34.369Z,4.10
2023-01-10T08:10:34.329Z,4.00
2023-01-10T08:11:34.277Z,4.50
2023-01-10T08:12:34.221Z,3.50
2023-01-10T08:13:34.200Z,3.80
2023-01-10T08:14:34.203Z,3.70
2023-01-10T08:15:34.102Z,3.70
2023-01-10T08:16:34.064Z,4.20
2023-01-10T08:17:33.992Z,3.70
2023-01-10T08:18:33.938Z,3.90
2023-01-10T08:19:33.901Z,3.80
2023-01-10T08:20:33.852Z,4.30
2023-01-10T08:21:33.814Z,3.80
2023-01-10T08:22:33.752Z,4.20
2023-01-10T08:23:33.712Z,3.90
2023-01-10T08:24:33.661Z,3.80
2023-01-10T08:25:33.620Z,4.40
2023-01-10T08:26:33.559Z,4.30
2023-01-10T08:27:33.518Z,4.60
2023-01-10T08:28:33.466Z,4.40
2023-01-10T08:29:33.440Z,4.10
2023-01-10T08:30:33.379Z,4.00
2023-01-10T08:31:33.340Z,4.00
2023-01-10T08:32:33.279Z,4.30
2023-01-10T08:33:33.246Z,4.30
2023-01-10T08:34:33.203Z,4.40
2023-01-10T08:35:33.145Z,3.80
2023-01-10T08:36:33.106Z,4.30
2023-01-10T08:37:33.046Z,4.20
2023-01-10T08:38:32.992Z,3.90
2023-01-10T08:39:32.961Z,4.20
2023-01-10T08:40:32.908Z,4.70
2023-01-10T08:41:32.867Z,5.00
2023-01-10T08:42:32.808Z,4.90
2023-01-10T08:43:32.759Z,4.40
2023-01-10T08:44:32.728Z,4.80
2023-01-10T08:45:32.711Z,5.60
2023-01-10T08:46:32.673Z,5.20
2023-01-10T08:47:32.587Z,5.40
2023-01-10T08:48:32.537Z,5.70
2023-01-10T08:49:32.488Z,5.10
2023-01-10T08:50:32.431Z,5.10
2023-01-10T08:51:32.399Z,6.20
2023-01-10T08:52:32.343Z,7.00
2023-01-10T08:53:32.287Z,6.90
2023-01-10T08:54:32.240Z,7.10
2023-01-10T08:55:32.197Z,7.20
2023-01-10T08:56:32.152Z,7.30
2023-01-10T08:57:32.100Z,7.60
2023-01-10T08:58:32.058Z,7.40
2023-01-10T08:59:32.014Z,8.10
2023-01-10T09:00:31.971Z,7.90
2023-01-10T09:01:32.082Z,7.90
2023-01-10T09:02:31.963Z,9.30
2023-01-10T09:03:31.858Z,8.70
2023-01-10T09:04:33.033Z,8.80
2023-01-10T09:05:31.725Z,8.30
2023-01-10T09:06:31.691Z,9.00
2023-01-10T09:07:31.630Z,7.90
2023-01-10T09:08:31.583Z,8.30
2023-01-10T09:09:31.548Z,8.30
2023-01-10T09:10:31.489Z,8.20
2023-01-10T09:11:31.438Z,8.00
2023-01-10T09:12:31.391Z,8.20
2023-01-10T09:13:31.340Z,8.90
2023-01-10T09:14:31.299Z,7.50
2023-01-10T09:15:31.296Z,8.10
2023-01-10T09:16:31.207Z,8.30
2023-01-10T09:17:31.179Z,8.10
2023-01-10T09:18:31.105Z,7.90
2023-01-10T09:19:31.062Z,8.40
2023-01-10T09:20:31.027Z,8.90
2023-01-10T09:21:30.974Z,8.10
2023-01-10T09:22:30.930Z,8.10
2023-01-10T09:23:30.878Z,9.20
2023-01-10T09:24:30.835Z,8.00
2023-01-10T09:25:30.780Z,8.10
2023-01-10T09:26:30.733Z,8.00
2023-01-10T09:27:30.689Z,8.40
2023-01-10T09:28:30.657Z,7.70
2023-01-10T09:29:30.593Z,7.00
2023-01-10T09:30:30.550Z,6.90
2023-01-10T09:31:30.537Z,6.80
2023-01-10T09:32:30.447Z,7.20
2023-01-10T09:33:45.269Z,6.40
2023-01-10T09:34:30.353Z,7.30
2023-01-10T09:35:30.362Z,6.50
2023-01-10T09:36:30.263Z,6.20
2023-01-10T09:37:30.228Z,7.00
2023-01-10T09:38:30.166Z,7.00
2023-01-10T09:39:30.127Z,6.10
2023-01-10T09:40:30.074Z,6.20
2023-01-10T09:41:30.062Z,6.20
2023-01-10T09:42:30.004Z,5.80
2023-01-10T09:43:29.924Z,6.50
2023-01-10T09:44:29.883Z,5.20
2023-01-10T09:45:29.851Z,5.50
2023-01-10T09:46:29.875Z,5.60
2023-01-10T09:47:29.748Z,5.60
2023-01-10T09:48:29.702Z,5.80
2023-01-10T09:49:29.666Z,5.80
2023-01-10T09:50:29.612Z,6.00
2023-01-10T09:51:29.560Z,5.70
2023-01-10T09:52:29.515Z,6.10
2023-01-10T09:53:29.464Z,5.80
2023-01-10T09:54:29.413Z,5.90
2023-01-10T09:55:31.506Z,5.10
2023-01-10T09:56:29.334Z,6.10
2023-01-10T09:57:29.281Z,4.90
2023-01-10T09:58:29.237Z,4.90
2023-01-10T09:59:29.201Z,5.10
2023-01-10T10:00:29.136Z,5.20
2023-01-10T10:01:29.143Z,4.40
2023-01-10T10:02:29.054Z,4.20
2023-01-10T10:03:29.109Z,5.60
2023-01-10T10:04:29.011Z,5.30
2023-01-10T10:05:28.924Z,4.60
2023-01-10T10:06:28.859Z,5.10
2023-01-10T10:07:28.811Z,5.30
2023-01-10T10:08:28.759Z,4.70
2023-01-10T10:09:28.740Z,4.60
2023-01-10T10:10:28.671Z,4.70
2023-01-10T10:11:28.617Z,4.90
2023-01-10T10:12:28.574Z,4.40
2023-01-10T10:13:28.526Z,3.90
2023-01-10T10:14:28.479Z,4.10
2023-01-10T10:15:28.435Z,5.00
2023-01-10T10:16:28.402Z,4.50
2023-01-10T10:17:28.337Z,4.70
2023-01-10T10:18:28.294Z,4.70
2023-01-10T10:19:28.243Z,4.50
2023-01-10T10:20:28.199Z,4.20
2023-01-10T10:21:28.172Z,4.60
2023-01-10T10:22:28.124Z,4.30
2023-01-10T10:23:28.070Z,4.60
2023-01-10T10:24:28.052Z,4.20
2023-01-10T10:25:27.967Z,4.10
2023-01-10T10:26:27.922Z,4.90
2023-01-10T10:27:27.873Z,4.30
2023-01-10T10:28:27.829Z,4.60
2023-01-10T10:29:27.778Z,3.60
2023-01-10T10:30:27.735Z,4.10
2023-01-10T10:31:27.758Z,4.40
2023-01-10T10:32:27.643Z,4.00
2023-01-10T10:33:27.594Z,3.70
2023-01-10T10:34:27.551Z,4.20
2023-01-10T10:35:27.511Z,3.80
2023-01-10T10:37:27.435Z,4.10
2023-01-10T10:38:27.375Z,3.90
2023-01-10T10:39:27.320Z,3.60
2023-01-10T10:40:27.280Z,3.40
2023-01-10T10:41:27.228Z,4.50
2023-01-10T10:42:27.179Z,3.60
2023-01-10T10:43:27.131Z,3.80
2023-01-10T10:44:27.084Z,3.20
2023-01-10T10:45:27.211Z,3.50
2023-01-10T10:46:27.007Z,3.60
2023-01-10T10:47:26.954Z,3.50
2023-01-10T10:48:26.898Z,3.90
2023-01-10T10:49:26.861Z,4.00
2023-01-10T10:50:26.812Z,3.50
2023-01-10T10:51:26.764Z,4.30
2023-01-10T10:52:26.720Z,3.50
2023-01-10T10:53:26.712Z,4.40
2023-01-10T10:54:26.623Z,3.90
2023-01-10T10:55:26.592Z,3.90
2023-01-10T10:56:26.567Z,3.90
2023-01-10T10:57:26.487Z,4.20
2023-01-10T10:58:26.444Z,4.10
2023-01-10T10:59:26.400Z,4.30
2023-01-10T11:00:26.344Z,3.40
2023-01-10T11:01:26.933Z,3.60
2023-01-10T11:02:26.261Z,3.60
2023-01-10T11:03:26.221Z,3.40
2023-01-10T11:04:26.214Z,3.30
2023-01-10T11:05:26.125Z,4.00
2023-01-10T11:06:26.072Z,4.30
2023-01-10T11:07:26.023Z,3.50
2023-01-10T11:08:25.986Z,3.80
2023-01-10T11:09:25.960Z,3.80
2023-01-10T11:10:25.887Z,3.50
2023-01-10T11:11:25.865Z,3.80
2023-01-10T11:12:25.796Z,3.40
2023-01-10T11:13:25.751Z,3.40
2023-01-10T11:14:25.703Z,3.60
2023-01-10T11:15:25.661Z,3.40
2023-01-10T11:16:25.637Z,3.70
2023-01-10T11:17:25.573Z,3.40
2023-01-10T11:18:25.518Z,3.50
2023-01-10T11:19:25.473Z,3.50
2023-01-10T11:20:25.427Z,3.80
2023-01-10T11:21:25.463Z,3.60
2023-01-10T11:22:25.341Z,3.80
2023-01-10T11:23:25.290Z,3.40
2023-01-10T11:24:25.240Z,3.30
2023-01-10T11:25:25.216Z,3.60
2023-01-10T11:26:25.167Z,3.40
2023-01-10T11:27:25.104Z,3.80
2023-01-10T11:28:25.066Z,3.30
2023-01-10T11:29:25.017Z,4.10
2023-01-10T11:30:24.973Z,3.40
2023-01-10T11:31:24.988Z,3.70
2023-01-10T11:32:24.882Z,3.70
2023-01-10T11:33:24.844Z,4.10
2023-01-10T11:34:24.786Z,4.00
2023-01-10T11:35:24.738Z,3.80
2023-01-10T11:36:24.691Z,3.80
2023-01-10T11:37:24.654Z,4.00
2023-01-10T11:38:24.704Z,4.10
2023-01-10T11:39:24.554Z,3.60
2023-01-10T11:40:24.508Z,4.00
2023-01-10T11:41:24.484Z,3.70
2023-01-10T11:42:24.427Z,4.00
2023-01-10T11:43:24.383Z,3.50
2023-01-10T11:44:24.321Z,3.60
2023-01-10T11:45:24.282Z,4.20
2023-01-10T11:46:24.234Z,3.70
2023-01-10T11:47:25.207Z,4.00
2023-01-10T11:48:44.331Z,3.60
2023-01-10T11:49:24.097Z,4.20
2023-01-10T11:50:24.047Z,3.70
2023-01-10T11:51:24.009Z,4.20
2023-01-10T11:52:23.960Z,3.80
2023-01-10T11:53:23.916Z,4.00
2023-01-10T11:54:23.869Z,4.00
2023-01-10T11:55:23.826Z,3.60
2023-01-10T11:57:07.267Z,4.20
2023-01-10T11:58:07.118Z,3.50
2023-01-10T11:59:07.064Z,4.00
2023-01-10T12:00:07.015Z,3.60
2023-01-10T12:01:07.047Z,3.60
2023-01-10T12:05:04.248Z,3.80
2023-01-10T12:06:03.115Z,3.40
2023-01-10T12:07:03.065Z,3.60
2023-01-10T12:08:03.015Z,3.70
2023-01-10T12:09:02.966Z,4.10
2023-01-10T12:10:02.922Z,3.60
2023-01-10T12:11:02.875Z,3.70
2023-01-10T12:12:02.842Z,3.60
2023-01-10T12:13:02.816Z,3.40
2023-01-10T12:14:02.743Z,3.60
2023-01-10T12:15:02.691Z,3.40
2023-01-10T17:39:05.742Z,1.60
2023-01-10T17:40:05.682Z,1.70
2023-01-10T17:41:05.611Z,2.20
2023-01-10T17:42:05.578Z,2.90
2023-01-10T17:43:05.510Z,2.20
2023-01-10T17:44:05.461Z,2.80
2023-01-10T17:45:05.414Z,3.00
2023-01-10T17:46:05.412Z,2.70
2023-01-10T17:47:05.312Z,3.10
2023-01-10T17:48:05.257Z,2.80
2023-01-10T17:49:05.203Z,2.70
2023-01-10T17:50:05.159Z,2.80
2023-01-10T17:51:05.109Z,3.10
2023-01-10T17:52:05.055Z,2.90
2023-01-10T17:53:05.014Z,2.80
2023-01-10T17:54:04.967Z,3.00
2023-01-10T17:55:04.931Z,2.80
2023-01-10T17:56:04.887Z,2.50
2023-01-10T17:57:04.818Z,3.30
2023-01-10T17:58:04.768Z,2.70
2023-01-10T17:59:04.744Z,3.10
2023-01-10T18:00:04.675Z,2.80
2023-01-10T18:01:04.758Z,3.20
2023-01-10T18:02:04.814Z,4.20
2023-01-10T18:03:04.576Z,2.90
2023-01-10T18:04:04.479Z,2.50
2023-01-10T18:05:04.442Z,2.70
2023-01-10T18:06:07.683Z,3.20
2023-01-10T18:07:04.342Z,2.80
2023-01-10T18:08:04.303Z,2.80
2023-01-10T18:09:04.236Z,2.90
2023-01-10T18:10:04.199Z,2.90
2023-01-10T18:11:04.197Z,2.60
2023-01-10T18:12:04.106Z,2.70
2023-01-10T18:13:04.051Z,3.10
2023-01-10T18:14:04.010Z,3.40
2023-01-10T18:15:03.959Z,2.60
2023-01-10T18:16:03.911Z,2.20
2023-01-10T18:17:03.921Z,2.50
2023-01-10T18:18:03.821Z,2.40
2023-01-10T18:19:03.772Z,3.00
2023-01-10T18:20:03.728Z,2.70
2023-01-10T18:21:03.671Z,2.70
2023-01-10T18:22:03.625Z,2.40
2023-01-10T18:23:04.968Z,2.80
2023-01-10T18:24:03.533Z,2.70
2023-01-10T18:25:03.507Z,2.40
2023-01-10T18:26:03.439Z,2.50
2023-01-10T18:27:03.420Z,2.30
2023-01-10T18:28:03.349Z,2.90
2023-01-10T18:29:03.304Z,2.40
2023-01-10T18:30:03.249Z,2.40
2023-01-10T18:31:03.223Z,2.60
2023-01-10T18:32:03.163Z,2.50
2023-01-10T18:33:03.113Z,2.80
2023-01-10T18:34:03.061Z,2.80
2023-01-10T18:35:03.021Z,2.70
2023-01-10T18:36:02.965Z,2.40
2023-01-10T18:37:02.920Z,2.70
2023-01-10T18:38:02.881Z,2.30
2023-01-10T18:39:02.835Z,2.60
2023-01-10T18:40:02.779Z,2.30
2023-01-10T18:41:02.737Z,2.60
2023-01-10T18:42:02.689Z,2.60
2023-01-10T18:43:02.676Z,2.60
2023-01-10T18:44:02.595Z,2.20
2023-01-10T18:45:02.540Z,2.40
2023-01-10T18:46:02.600Z,2.60
2023-01-10T18:47:02.452Z,2.50
2023-01-10T18:48:02.409Z,2.70
2023-01-10T18:49:02.363Z,2.60
2023-01-10T18:50:02.313Z,2.40
2023-01-10T18:51:02.258Z,2.40
2023-01-10T18:52:02.226Z,2.90
2023-01-10T18:53:02.165Z,2.10
2023-01-10T18:54:02.150Z,2.40
2023-01-10T18:55:02.544Z,2.20
2023-01-10T18:56:02.048Z,2.30